Time;durP1;ratioP1;P1;durP2;ratioP2;P2;SDS_P1;SDS_P2;PMS_P1;PMS_P2;Temp;Humidity;BMP_temperature;BMP_pressure;BME280_temperature;BME280_humidity;BME280_pressure;Samples;Min_cycle;Max_cycle;Signal;HPM_P1;HPM_P2
2021/10/26 00:01:57;;;;;;;;;;;;;;;;;;5038621;28;19916;-82
2021/10/26 00:04:23;;;;;;;;;;;;;;;;;;5039316;28;19952;-82
2021/10/26 00:06:48;;;;;;;;;;;;;;;;;;5022143;28;19963;-81
2021/10/26 00:09:15;;;;;;;;;;;;;;;;;;5027221;28;19924;-81
2021/10/26 00:11:41;;;;;;;;;;;;;;;;;;5057375;28;19917;-81
2021/10/26 00:14:06;;;;;;;;;;;;;;;;;;5054504;28;19916;-81
2021/10/26 00:16:31;;;;;;;;;;;;;;;;;;5055444;28;20029;-81
2021/10/26 00:18:57;;;;;;;;;;;;;;;;;;5054831;28;19924;-81
2021/10/26 00:21:22;;;;;;;;;;;;;;;;;;5055279;28;19916;-81
2021/10/26 00:23:47;;;;;;;;;;;;;;;;;;5054746;28;19932;-81
2021/10/26 00:26:13;;;;;;;;;;;;;;;;;;5054219;28;19970;-81
2021/10/26 00:28:38;;;;;;;;;;;;;;;;;;5036952;28;20308;-81
2021/10/26 00:31:03;;;;;;;;;;;;;;;;;;5018838;28;19950;-81
2021/10/26 00:33:29;;;;;;;;;;;;;;;;;;5050772;28;20272;-81
2021/10/26 00:35:54;;;;;;;;;;;;;;;;;;5034614;28;19940;-81
2021/10/26 00:38:19;;;;;;;;;;;;;;;;;;5031009;28;19924;-81
2021/10/26 00:40:45;;;;;;;;;;;;;;;;;;5054068;28;19916;-81
2021/10/26 00:43:10;;;;;;;;;;;;;;;;;;5037857;28;19916;-81
2021/10/26 00:45:36;;;;;;;;;;;;;;;;;;5034860;28;19913;-81
2021/10/26 00:48:01;;;;;;;;;;;;;;;;;;5018410;28;19913;-81
2021/10/26 00:50:27;;;;;;;;;;;;;;;;;;5037531;28;19966;-81
2021/10/26 00:52:52;;;;;;;;;;;;;;;;;;5053993;28;19921;-80
2021/10/26 00:55:17;;;;;;;;;;;;;;;;;;5037636;28;19917;-80
2021/10/26 00:57:43;;;;;;;;;;;;;;;;;;5021700;28;19927;-81
2021/10/26 01:00:09;;;;;;;;;;;;;;;;;;5037958;28;20023;-80
2021/10/26 01:02:34;;;;;;;;;;;;;;;;;;5037206;28;19924;-81
2021/10/26 01:05:00;;;;;;;;;;;;;;;;;;5038005;28;19912;-81
2021/10/26 01:07:25;;;;;;;;;;;;;;;;;;5054050;28;20440;-81
2021/10/26 01:09:50;;;;;;;;;;;;;;;;;;5020975;28;19959;-81
2021/10/26 01:12:16;;;;;;;;;;;;;;;;;;5041807;28;20012;-82
2021/10/26 01:14:41;;;;;;;;;;;;;;;;;;5037887;28;19959;-81
2021/10/26 01:17:10;;;;;;;;;;;;;;;;;;5054405;28;19916;-81
2021/10/26 01:19:55;;;;;;;;;;;;;;;;;;5034015;28;20011;-81
2021/10/26 01:22:21;;;;;;;;;;;;;;;;;;5001285;28;19959;-81
2021/10/26 01:24:46;;;;;;;;;;;;;;;;;;5018105;28;20259;-81
2021/10/26 01:27:12;;;;;;;;;;;;;;;;;;5016967;28;19963;-81
2021/10/26 01:29:37;;;;;;;;;;;;;;;;;;5017664;28;19919;-80
2021/10/26 01:32:03;;;;;;;;;;;;;;;;;;5001798;28;20727;-82
2021/10/26 01:34:29;;;;;;;;;;;;;;;;;;5017388;28;20405;-80
2021/10/26 01:36:56;;;;;;;;;;;;;;;;;;5020728;28;19916;-81
2021/10/26 01:39:22;;;;;;;;;;;;;;;;;;5020729;28;20361;-81
2021/10/26 01:41:48;;;;;;;;;;;;;;;;;;5020753;28;19952;-81
2021/10/26 01:44:13;;;;;;;;;;;;;;;;;;5054274;28;20018;-81
2021/10/26 01:46:39;;;;;;;;;;;;;;;;;;5021057;28;20027;-81
2021/10/26 01:49:04;;;;;;;;;;;;;;;;;;5037280;28;19952;-81
2021/10/26 01:51:29;;;;;;;;;;;;;;;;;;5037115;28;19916;-81
2021/10/26 01:53:55;;;;;;;;;;;;;;;;;;5037435;28;19917;-80
2021/10/26 01:56:21;;;;;;;;;;;;;;;;;;5037216;28;19913;-81
2021/10/26 01:58:47;;;;;;;;;;;;;;;;;;5037371;28;19913;-81
2021/10/26 02:01:12;;;;;;;;;;;;;;;;;;5054081;28;19913;-81
2021/10/26 02:03:38;;;;;;;;;;;;;;;;;;5054116;28;20388;-81
2021/10/26 02:06:04;;;;;;;;;;;;;;;;;;5053960;28;19913;-81
2021/10/26 02:08:30;;;;;;;;;;;;;;;;;;5037367;28;19999;-81
2021/10/26 02:10:55;;;;;;;;;;;;;;;;;;5054188;28;19935;-82
2021/10/26 02:13:21;;;;;;;;;;;;;;;;;;5037225;28;20375;-81
2021/10/26 02:15:46;;;;;;;;;;;;;;;;;;5053782;28;19912;-81
2021/10/26 02:18:12;;;;;;;;;;;;;;;;;;5053727;28;19956;-81
2021/10/26 02:20:37;;;;;;;;;;;;;;;;;;5036668;28;19923;-81
2021/10/26 02:23:02;;;;;;;;;;;;;;;;;;5020324;28;20057;-81
2021/10/26 02:25:28;;;;;;;;;;;;;;;;;;5037000;28;19913;-81
2021/10/26 02:27:54;;;;;;;;;;;;;;;;;;5020883;28;19917;-81
2021/10/26 02:30:19;;;;;;;;;;;;;;;;;;5037295;28;20401;-81
2021/10/26 02:32:45;;;;;;;;;;;;;;;;;;5053730;28;19923;-81
2021/10/26 02:35:12;;;;;;;;;;;;;;;;;;5053484;28;20390;-81
2021/10/26 02:37:37;;;;;;;;;;;;;;;;;;5021552;28;20010;-81
2021/10/26 02:40:04;;;;;;;;;;;;;;;;;;5023919;28;20003;-81
2021/10/26 02:42:29;;;;;;;;;;;;;;;;;;5024193;28;20375;-81
2021/10/26 02:44:54;;;;;;;;;;;;;;;;;;5040797;28;19995;-81
2021/10/26 02:47:20;;;;;;;;;;;;;;;;;;5040511;28;20298;-81
2021/10/26 02:49:45;;;;;;;;;;;;;;;;;;5023325;28;19916;-81
2021/10/26 02:52:11;;;;;;;;;;;;;;;;;;5023562;28;19924;-81
2021/10/26 02:54:37;;;;;;;;;;;;;;;;;;5040405;28;19912;-81
2021/10/26 02:57:03;;;;;;;;;;;;;;;;;;5023742;28;20426;-81
2021/10/26 02:59:28;;;;;;;;;;;;;;;;;;5040192;28;20003;-81
2021/10/26 03:01:53;;;;;;;;;;;;;;;;;;5023779;28;19943;-81
2021/10/26 03:04:19;;;;;;;;;;;;;;;;;;5040103;28;20015;-81
2021/10/26 03:06:44;;;;;;;;;;;;;;;;;;5040128;28;19922;-81
2021/10/26 03:09:10;;;;;;;;;;;;;;;;;;5039804;28;19955;-81
2021/10/26 03:11:36;;;;;;;;;;;;;;;;;;5040074;28;20449;-81
2021/10/26 03:14:01;;;;;;;;;;;;;;;;;;5040413;28;20003;-81
2021/10/26 03:16:27;;;;;;;;;;;;;;;;;;5040155;28;19936;-81
2021/10/26 03:18:52;;;;;;;;;;;;;;;;;;5019539;28;19913;-80
2021/10/26 03:21:17;;;;;;;;;;;;;;;;;;5019596;28;20015;-81
2021/10/26 03:23:43;;;;;;;;;;;;;;;;;;5019793;28;20011;-81
2021/10/26 03:26:08;;;;;;;;;;;;;;;;;;5019938;28;19917;-81
2021/10/26 03:28:33;;;;;;;;;;;;;;;;;;5003432;28;19963;-81
2021/10/26 03:31:04;;;;;;;;;;;;;;;;;;5036313;28;19917;-81
2021/10/26 03:33:29;;;;;;;;;;;;;;;;;;5003980;28;19917;-81
2021/10/26 03:35:55;;;;;;;;;;;;;;;;;;5032852;28;20263;-81
2021/10/26 03:38:20;;;;;;;;;;;;;;;;;;5023215;28;19912;-81
2021/10/26 03:40:46;;;;;;;;;;;;;;;;;;5039247;28;19948;-80
2021/10/26 03:43:11;;;;;;;;;;;;;;;;;;5022994;28;19912;-80
2021/10/26 03:45:36;;;;;;;;;;;;;;;;;;5055821;28;19967;-80
2021/10/26 03:48:02;;;;;;;;;;;;;;;;;;5039079;28;19965;-81
2021/10/26 03:50:27;;;;;;;;;;;;;;;;;;5038154;28;20014;-81
2021/10/26 03:52:52;;;;;;;;;;;;;;;;;;5039270;28;19999;-80
2021/10/26 03:55:20;;;;;;;;;;;;;;;;;;5055794;28;19912;-81
2021/10/26 03:57:45;;;;;;;;;;;;;;;;;;5039256;28;19912;-81
2021/10/26 04:00:11;;;;;;;;;;;;;;;;;;5022607;28;19912;-80
2021/10/26 04:02:40;;;;;;;;;;;;;;;;;;5038735;28;19912;-81
2021/10/26 04:05:13;;;;;;;;;;;;;;;;;;5055914;28;19917;-81
2021/10/26 04:07:47;;;;;;;;;;;;;;;;;;5055127;28;19919;-80
2021/10/26 04:10:16;;;;;;;;;;;;;;;;;;5056114;28;19919;-81
2021/10/26 04:12:41;;;;;;;;;;;;;;;;;;5022659;28;19912;-80
2021/10/26 04:15:07;;;;;;;;;;;;;;;;;;5022287;28;20286;-81
2021/10/26 04:17:32;;;;;;;;;;;;;;;;;;5055229;28;20255;-81
2021/10/26 04:19:59;;;;;;;;;;;;;;;;;;5018489;28;20394;-80
2021/10/26 04:22:24;;;;;;;;;;;;;;;;;;5002509;28;20394;-80
2021/10/26 04:24:49;;;;;;;;;;;;;;;;;;5002456;28;19955;-80
2021/10/26 04:27:15;;;;;;;;;;;;;;;;;;5018740;28;20011;-80
2021/10/26 04:29:41;;;;;;;;;;;;;;;;;;5026363;28;19917;-80
2021/10/26 04:32:09;;;;;;;;;;;;;;;;;;5018482;28;19913;-81
2021/10/26 04:34:34;;;;;;;;;;;;;;;;;;5019298;28;19954;-80
2021/10/26 04:36:59;;;;;;;;;;;;;;;;;;5018550;28;20267;-80
2021/10/26 04:39:25;;;;;;;;;;;;;;;;;;5034906;28;19933;-80
2021/10/26 04:41:50;;;;;;;;;;;;;;;;;;5034429;28;19913;-80
2021/10/26 04:44:16;;;;;;;;;;;;;;;;;;5018809;28;19912;-79
2021/10/26 04:46:41;;;;;;;;;;;;;;;;;;5021311;28;20003;-80
2021/10/26 04:49:06;;;;;;;;;;;;;;;;;;5054694;28;20405;-80
2021/10/26 04:51:32;;;;;;;;;;;;;;;;;;5021538;28;19923;-81
2021/10/26 04:53:57;;;;;;;;;;;;;;;;;;5038031;28;20317;-80
2021/10/26 04:56:23;;;;;;;;;;;;;;;;;;5037868;28;19962;-80
2021/10/26 04:58:49;;;;;;;;;;;;;;;;;;5038024;28;19916;-81
2021/10/26 05:01:14;;;;;;;;;;;;;;;;;;5054491;28;19963;-80
2021/10/26 05:03:42;;;;;;;;;;;;;;;;;;5038211;28;19971;-80
2021/10/26 05:06:07;;;;;;;;;;;;;;;;;;5036711;28;19916;-80
2021/10/26 05:08:33;;;;;;;;;;;;;;;;;;5037629;28;19928;-81
2021/10/26 05:10:58;;;;;;;;;;;;;;;;;;5034326;28;19924;-81
2021/10/26 05:13:23;;;;;;;;;;;;;;;;;;5034459;28;19916;-78
2021/10/26 05:15:48;;;;;;;;;;;;;;;;;;5040555;28;19921;-78
2021/10/26 05:18:15;;;;;;;;;;;;;;;;;;5035371;28;19924;-78
2021/10/26 05:20:41;;;;;;;;;;;;;;;;;;5034810;28;20333;-78
2021/10/26 05:23:07;;;;;;;;;;;;;;;;;;5036180;28;19999;-79
2021/10/26 05:25:33;;;;;;;;;;;;;;;;;;5054128;28;19912;-77
2021/10/26 05:27:58;;;;;;;;;;;;;;;;;;5054556;28;19912;-78
2021/10/26 05:30:24;;;;;;;;;;;;;;;;;;5037045;28;19927;-78
2021/10/26 05:32:51;;;;;;;;;;;;;;;;;;5020914;28;19917;-78
2021/10/26 05:35:17;;;;;;;;;;;;;;;;;;5036927;28;19939;-78
2021/10/26 05:37:42;;;;;;;;;;;;;;;;;;5037317;28;20362;-78
2021/10/26 05:40:08;;;;;;;;;;;;;;;;;;5053284;28;19924;-81
2021/10/26 05:42:34;;;;;;;;;;;;;;;;;;5033399;28;20333;-79
2021/10/26 05:44:59;;;;;;;;;;;;;;;;;;5033800;28;19924;-80
2021/10/26 05:47:24;;;;;;;;;;;;;;;;;;5035039;28;19916;-80
2021/10/26 05:49:49;;;;;;;;;;;;;;;;;;5034276;28;20317;-80
2021/10/26 05:52:15;;;;;;;;;;;;;;;;;;5018449;28;19966;-80
2021/10/26 05:54:40;;;;;;;;;;;;;;;;;;5052378;28;19920;-80
2021/10/26 05:57:05;;;;;;;;;;;;;;;;;;5036032;28;19974;-80
2021/10/26 05:59:31;;;;;;;;;;;;;;;;;;5046570;28;19930;-80
2021/10/26 06:01:56;;;;;;;;;;;;;;;;;;5073498;28;19917;-80
2021/10/26 06:04:23;;;;;;;;;;;;;;;;;;5055362;28;20385;-85
2021/10/26 06:06:49;;;;;;;;;;;;;;;;;;5021544;28;19916;-84
2021/10/26 06:09:16;;;;;;;;;;;;;;;;;;5035037;28;19929;-83
2021/10/26 06:11:42;;;;;;;;;;;;;;;;;;5050386;28;19917;-82
2021/10/26 06:14:08;;;;;;;;;;;;;;;;;;5036643;28;20006;-83
2021/10/26 06:16:34;;;;;;;;;;;;;;;;;;5024937;28;19919;-82
2021/10/26 06:18:59;;;;;;;;;;;;;;;;;;5040326;28;19944;-82
2021/10/26 06:21:25;;;;;;;;;;;;;;;;;;5040285;28;20363;-81
2021/10/26 06:23:52;;;;;;;;;;;;;;;;;;5037301;28;20016;-81
2021/10/26 06:26:18;;;;;;;;;;;;;;;;;;5057245;28;19916;-81
2021/10/26 06:28:43;;;;;;;;;;;;;;;;;;5056852;28;19923;-82
2021/10/26 06:31:08;;;;;;;;;;;;;;;;;;5041091;28;20041;-81
2021/10/26 06:33:34;;;;;;;;;;;;;;;;;;5040264;28;19928;-82
2021/10/26 06:35:59;;;;;;;;;;;;;;;;;;5023639;28;19921;-82
2021/10/26 06:38:24;;;;;;;;;;;;;;;;;;5027606;28;19920;-81
2021/10/26 06:40:50;;;;;;;;;;;;;;;;;;5050749;28;19923;-81
2021/10/26 06:43:15;;;;;;;;;;;;;;;;;;5025536;28;19923;-81
2021/10/26 06:45:41;;;;;;;;;;;;;;;;;;5040635;28;20007;-81
2021/10/26 06:48:06;;;;;;;;;;;;;;;;;;5057106;28;20332;-81
2021/10/26 06:50:31;;;;;;;;;;;;;;;;;;5055921;28;19976;-81
2021/10/26 06:52:57;;;;;;;;;;;;;;;;;;5023370;28;19924;-81
2021/10/26 06:55:23;;;;;;;;;;;;;;;;;;5040344;28;19939;-81
2021/10/26 06:57:49;;;;;;;;;;;;;;;;;;5050403;28;19956;-81
2021/10/26 07:00:15;;;;;;;;;;;;;;;;;;5039672;28;20402;-81
2021/10/26 07:02:47;;;;;;;;;;;;;;;;;;5056243;28;19923;-81
2021/10/26 07:05:14;;;;;;;;;;;;;;;;;;5039050;28;19916;-81
2021/10/26 07:07:40;;;;;;;;;;;;;;;;;;5073386;28;19921;-81
2021/10/26 07:10:06;;;;;;;;;;;;;;;;;;5032128;28;19912;-81
2021/10/26 07:12:31;;;;;;;;;;;;;;;;;;5076495;28;19912;-81
2021/10/26 07:14:56;;;;;;;;;;;;;;;;;;5056580;28;19932;-81
2021/10/26 07:17:22;;;;;;;;;;;;;;;;;;5055093;28;20294;-81
2021/10/26 07:19:47;;;;;;;;;;;;;;;;;;5054673;28;19916;-82
2021/10/26 07:22:13;;;;;;;;;;;;;;;;;;5022873;28;20331;-82
2021/10/26 07:24:39;;;;;;;;;;;;;;;;;;5021642;28;19962;-82
2021/10/26 07:27:05;;;;;;;;;;;;;;;;;;5039161;28;20390;-82
2021/10/26 07:29:31;;;;;;;;;;;;;;;;;;5056483;28;19912;-82
2021/10/26 07:31:56;;;;;;;;;;;;;;;;;;5039298;28;19917;-81
2021/10/26 07:34:22;;;;;;;;;;;;;;;;;;5039818;28;20371;-81
2021/10/26 07:36:48;;;;;;;;;;;;;;;;;;5039064;28;19916;-81
2021/10/26 07:39:43;;;;;;;;;;;;;;;;;;5038488;28;19963;-81
2021/10/26 07:42:00;;;;;;;;;;;;;;;;;;5052488;28;20004;-81
2021/10/26 07:44:27;;;;;;;;;;;;;;;;;;5003630;28;20007;-81
2021/10/26 07:46:52;;;;;;;;;;;;;;;;;;5036075;28;19916;-81
2021/10/26 07:49:18;;;;;;;;;;;;;;;;;;5046684;28;19924;-81
2021/10/26 07:51:43;;;;;;;;;;;;;;;;;;5038773;28;19916;-81
2021/10/26 07:54:10;;;;;;;;;;;;;;;;;;5038622;28;19917;-81
2021/10/26 07:56:35;;;;;;;;;;;;;;;;;;5038769;28;19920;-81
2021/10/26 07:59:02;;;;;;;;;;;;;;;;;;5055945;28;19962;-81
2021/10/26 08:01:27;;;;;;;;;;;;;;;;;;5052220;28;19985;-81
2021/10/26 08:03:55;;;;;;;;;;;;;;;;;;5045541;28;20374;-81
2021/10/26 08:06:20;;;;;;;;;;;;;;;;;;5056459;28;19912;-82
2021/10/26 08:08:46;;;;;;;;;;;;;;;;;;5042048;28;19970;-82
2021/10/26 08:11:11;;;;;;;;;;;;;;;;;;5034333;28;19916;-84
2021/10/26 08:13:37;;;;;;;;;;;;;;;;;;5055085;28;20328;-81
2021/10/26 08:16:04;;;;;;;;;;;;;;;;;;5022398;28;19951;-83
2021/10/26 08:18:33;;;;;;;;;;;;;;;;;;5023596;28;19962;-86
2021/10/26 08:20:59;;;;;;;;;;;;;;;;;;5022563;28;20003;-87
2021/10/26 08:23:26;;;;;;;;;;;;;;;;;;5023025;28;20154;-88
2021/10/26 08:25:58;;;;;;;;;;;;;;;;;;5022436;28;19917;-88
2021/10/26 08:28:26;;;;;;;;;;;;;;;;;;5023294;28;19919;-87
2021/10/26 08:30:56;;;;;;;;;;;;;;;;;;5023138;28;19962;-86
2021/10/26 08:36:07;;;;;;;;;;;;;;;;;;5014192;28;19942;-89
2021/10/26 08:38:33;;;;;;;;;;;;;;;;;;5018874;28;19913;-83
2021/10/26 08:40:59;;;;;;;;;;;;;;;;;;5037061;28;20225;-83
2021/10/26 08:43:24;;;;;;;;;;;;;;;;;;5018090;28;19933;-83
2021/10/26 08:45:51;;;;;;;;;;;;;;;;;;5019051;28;19968;-83
2021/10/26 08:48:21;;;;;;;;;;;;;;;;;;5018279;28;19917;-84
2021/10/26 08:50:51;;;;;;;;;;;;;;;;;;5034402;28;19924;-83
2021/10/26 08:53:17;;;;;;;;;;;;;;;;;;5036151;28;19927;-84
2021/10/26 08:55:43;;;;;;;;;;;;;;;;;;5020890;28;19917;-83
2021/10/26 08:58:08;;;;;;;;;;;;;;;;;;5038318;28;19945;-84
2021/10/26 09:00:34;;;;;;;;;;;;;;;;;;5023907;28;20406;-83
2021/10/26 09:03:01;;;;;;;;;;;;;;;;;;5040941;28;19923;-83
2021/10/26 09:05:27;;;;;;;;;;;;;;;;;;5041004;28;19963;-83
2021/10/26 09:08:05;;;;;;;;;;;;;;;;;;5020199;28;19955;-86
2021/10/26 09:10:32;;;;;;;;;;;;;;;;;;5034208;28;19948;-85
2021/10/26 09:18:40;;;;;;;;;;;;;;;;;;5056252;28;19916;-81
2021/10/26 09:21:21;;;;;;;;;;;;;;;;;;5036971;28;19927;-80
2021/10/26 09:23:49;;;;;;;;;;;;;;;;;;5037763;28;19916;-81
2021/10/26 09:26:15;;;;;;;;;;;;;;;;;;5036820;28;19921;-81
2021/10/26 09:28:48;;;;;;;;;;;;;;;;;;5054653;28;19958;-83
2021/10/26 09:31:13;;;;;;;;;;;;;;;;;;5036749;28;19963;-81
2021/10/26 09:33:39;;;;;;;;;;;;;;;;;;5020263;28;20492;-81
2021/10/26 09:36:25;;;;;;;;;;;;;;;;;;5027953;28;20032;-79
2021/10/26 09:39:06;;;;;;;;;;;;;;;;;;5053200;28;19923;-81
2021/10/26 09:41:36;;;;;;;;;;;;;;;;;;5018089;28;20286;-79
2021/10/26 09:44:10;;;;;;;;;;;;;;;;;;5034351;28;20282;-80
2021/10/26 09:46:35;;;;;;;;;;;;;;;;;;5037553;28;20405;-80
2021/10/26 09:49:00;;;;;;;;;;;;;;;;;;5057285;28;20006;-79
2021/10/26 09:51:26;;;;;;;;;;;;;;;;;;5041177;28;19930;-81
2021/10/26 09:53:58;;;;;;;;;;;;;;;;;;5041686;28;19920;-80
2021/10/26 09:56:23;;;;;;;;;;;;;;;;;;5024335;28;19971;-81
2021/10/26 09:58:48;;;;;;;;;;;;;;;;;;5024968;28;19948;-82
2021/10/26 10:01:14;;;;;;;;;;;;;;;;;;5037422;28;19921;-79
2021/10/26 10:03:41;;;;;;;;;;;;;;;;;;5055574;28;19955;-81
2021/10/26 10:06:06;;;;;;;;;;;;;;;;;;5037651;28;19912;-81
2021/10/26 10:08:35;;;;;;;;;;;;;;;;;;5057942;28;19917;-78
2021/10/26 10:11:07;;;;;;;;;;;;;;;;;;5057801;28;19913;-80
2021/10/26 10:13:37;;;;;;;;;;;;;;;;;;5051116;28;19962;-79
2021/10/26 10:16:04;;;;;;;;;;;;;;;;;;5037808;28;20153;-78
2021/10/26 10:18:29;;;;;;;;;;;;;;;;;;5041571;28;20417;-80
2021/10/26 10:20:55;;;;;;;;;;;;;;;;;;5040426;28;20069;-79
2021/10/26 10:23:21;;;;;;;;;;;;;;;;;;5041024;28;20301;-80
2021/10/26 10:25:49;;;;;;;;;;;;;;;;;;5040666;28;19916;-80
2021/10/26 10:28:15;;;;;;;;;;;;;;;;;;5040150;28;19920;-80
2021/10/26 10:30:40;;;;;;;;;;;;;;;;;;5040313;28;19912;-81
2021/10/26 10:33:06;;;;;;;;;;;;;;;;;;5039586;28;19931;-80
2021/10/26 10:35:32;;;;;;;;;;;;;;;;;;5039768;28;19923;-80
2021/10/26 10:38:00;;;;;;;;;;;;;;;;;;5021874;28;20361;-80
2021/10/26 10:40:26;;;;;;;;;;;;;;;;;;5038258;28;19929;-83
2021/10/26 10:42:53;;;;;;;;;;;;;;;;;;5023948;28;19923;-84
2021/10/26 10:45:20;;;;;;;;;;;;;;;;;;5040590;28;20259;-83
2021/10/26 10:47:47;;;;;;;;;;;;;;;;;;5040185;28;19935;-82
2021/10/26 10:50:18;;;;;;;;;;;;;;;;;;5040271;28;19967;-81
2021/10/26 10:52:44;;;;;;;;;;;;;;;;;;5038391;28;19927;-82
2021/10/26 10:55:22;;;;;;;;;;;;;;;;;;5053155;28;19917;-80
2021/10/26 10:57:48;;;;;;;;;;;;;;;;;;5030469;28;19951;-82
2021/10/26 11:00:16;;;;;;;;;;;;;;;;;;5035862;28;19971;-82
2021/10/26 11:02:48;;;;;;;;;;;;;;;;;;5036986;28;19913;-82
2021/10/26 11:05:42;;;;;;;;;;;;;;;;;;5049068;28;19966;-80
2021/10/26 11:08:07;;;;;;;;;;;;;;;;;;5038503;28;20007;-83
2021/10/26 11:10:45;;;;;;;;;;;;;;;;;;5039554;28;19944;-82
2021/10/26 11:13:19;;;;;;;;;;;;;;;;;;5074334;28;19968;-85
2021/10/26 11:15:45;;;;;;;;;;;;;;;;;;5023608;28;19985;-84
2021/10/26 11:18:11;;;;;;;;;;;;;;;;;;5019158;28;19925;-82
2021/10/26 11:20:37;;;;;;;;;;;;;;;;;;5019486;28;19923;-82
2021/10/26 11:23:02;;;;;;;;;;;;;;;;;;5020102;28;19963;-81
2021/10/26 11:25:28;;;;;;;;;;;;;;;;;;5036368;28;19913;-82
2021/10/26 11:27:54;;;;;;;;;;;;;;;;;;5065738;28;20414;-82
2021/10/26 11:30:25;;;;;;;;;;;;;;;;;;5019506;28;20043;-82
2021/10/26 11:33:13;;;;;;;;;;;;;;;;;;5056025;28;20004;-82
2021/10/26 11:35:52;;;;;;;;;;;;;;;;;;5056010;28;20007;-82
2021/10/26 11:38:28;;;;;;;;;;;;;;;;;;5022905;28;20010;-83
2021/10/26 11:40:54;;;;;;;;;;;;;;;;;;5022727;28;20003;-84
2021/10/26 11:43:20;;;;;;;;;;;;;;;;;;5023187;28;20493;-84
2021/10/26 11:45:55;;;;;;;;;;;;;;;;;;5039111;28;19954;-84
2021/10/26 11:48:39;;;;;;;;;;;;;;;;;;5023183;28;20432;-83
2021/10/26 11:51:24;;;;;;;;;;;;;;;;;;5020398;28;19925;-82
2021/10/26 11:53:58;;;;;;;;;;;;;;;;;;5039106;28;19956;-82
2021/10/26 11:56:24;;;;;;;;;;;;;;;;;;5019469;28;19955;-83
2021/10/26 11:59:15;;;;;;;;;;;;;;;;;;5019298;28;19952;-82
2021/10/26 12:01:51;;;;;;;;;;;;;;;;;;5028069;28;19952;-81
2021/10/26 12:04:16;;;;;;;;;;;;;;;;;;5022956;28;19918;-82
2021/10/26 12:06:42;;;;;;;;;;;;;;;;;;5055894;28;19913;-84
2021/10/26 12:09:10;;;;;;;;;;;;;;;;;;5038003;28;19916;-84
2021/10/26 12:11:37;;;;;;;;;;;;;;;;;;5005384;28;20447;-84
2021/10/26 12:14:15;;;;;;;;;;;;;;;;;;5022038;28;20011;-84
2021/10/26 12:16:41;;;;;;;;;;;;;;;;;;5041287;28;19942;-82
2021/10/26 12:19:06;;;;;;;;;;;;;;;;;;5039104;28;20370;-84
2021/10/26 12:21:32;;;;;;;;;;;;;;;;;;5055786;28;19921;-84
2021/10/26 12:23:59;;;;;;;;;;;;;;;;;;5022694;28;20015;-86
2021/10/26 12:26:25;;;;;;;;;;;;;;;;;;5022408;28;19962;-84
2021/10/26 12:28:54;;;;;;;;;;;;;;;;;;5022204;28;19924;-82
2021/10/26 12:31:23;;;;;;;;;;;;;;;;;;5054932;28;20023;-84
2021/10/26 12:33:56;;;;;;;;;;;;;;;;;;5010776;28;19912;-83
2021/10/26 12:36:22;;;;;;;;;;;;;;;;;;5018432;28;20334;-84
2021/10/26 12:38:47;;;;;;;;;;;;;;;;;;5025654;28;19959;-82
2021/10/26 12:41:17;;;;;;;;;;;;;;;;;;5037845;28;20022;-84
2021/10/26 12:43:44;;;;;;;;;;;;;;;;;;5021860;28;19923;-83
2021/10/26 12:46:14;;;;;;;;;;;;;;;;;;5022116;28;19920;-82
2021/10/26 12:48:40;;;;;;;;;;;;;;;;;;5021388;28;19923;-82
2021/10/26 12:51:07;;;;;;;;;;;;;;;;;;5037913;28;20290;-82
2021/10/26 12:53:37;;;;;;;;;;;;;;;;;;5037812;28;19948;-83
2021/10/26 12:56:04;;;;;;;;;;;;;;;;;;5054791;28;19956;-82
2021/10/26 12:58:30;;;;;;;;;;;;;;;;;;5034235;28;20535;-84
2021/10/26 13:00:55;;;;;;;;;;;;;;;;;;5034822;28;19928;-84
2021/10/26 13:03:23;;;;;;;;;;;;;;;;;;5034529;28;19913;-84
2021/10/26 13:05:52;;;;;;;;;;;;;;;;;;5024677;28;19924;-83
2021/10/26 13:08:19;;;;;;;;;;;;;;;;;;5035707;28;19963;-84
2021/10/26 13:10:44;;;;;;;;;;;;;;;;;;5040118;28;19916;-82
2021/10/26 13:13:12;;;;;;;;;;;;;;;;;;5042876;28;19961;-83
2021/10/26 13:15:40;;;;;;;;;;;;;;;;;;5045968;28;19913;-82
2021/10/26 13:18:06;;;;;;;;;;;;;;;;;;5015019;28;19931;-83
2021/10/26 13:20:40;;;;;;;;;;;;;;;;;;5034634;28;20285;-83
2021/10/26 13:23:06;;;;;;;;;;;;;;;;;;5018956;28;20810;-83
2021/10/26 13:25:40;;;;;;;;;;;;;;;;;;5046484;28;20019;-83
2021/10/26 13:28:06;;;;;;;;;;;;;;;;;;5054892;28;19924;-83
2021/10/26 13:30:33;;;;;;;;;;;;;;;;;;5037154;28;20003;-83
2021/10/26 13:32:58;;;;;;;;;;;;;;;;;;5054663;28;19920;-83
2021/10/26 13:35:25;;;;;;;;;;;;;;;;;;5037798;28;19912;-82
2021/10/26 13:37:51;;;;;;;;;;;;;;;;;;5037759;28;20394;-82
2021/10/26 13:40:16;;;;;;;;;;;;;;;;;;5044584;28;19920;-82
2021/10/26 13:42:41;;;;;;;;;;;;;;;;;;5057208;28;19958;-82
2021/10/26 13:45:07;;;;;;;;;;;;;;;;;;5055079;28;19912;-82
2021/10/26 13:47:35;;;;;;;;;;;;;;;;;;5037412;28;20271;-83
2021/10/26 13:50:01;;;;;;;;;;;;;;;;;;5037812;28;20416;-82
2021/10/26 13:52:26;;;;;;;;;;;;;;;;;;5065765;28;19995;-83
2021/10/26 13:54:51;;;;;;;;;;;;;;;;;;5045163;28;20294;-83
2021/10/26 13:57:18;;;;;;;;;;;;;;;;;;5030282;28;19927;-82
2021/10/26 13:59:43;;;;;;;;;;;;;;;;;;5036800;28;19917;-83
2021/10/26 14:02:09;;;;;;;;;;;;;;;;;;5053711;28;19920;-82
2021/10/26 14:04:35;;;;;;;;;;;;;;;;;;5025580;28;19947;-83
2021/10/26 14:07:00;;;;;;;;;;;;;;;;;;5026872;28;19937;-82
2021/10/26 14:09:26;;;;;;;;;;;;;;;;;;5034535;28;20647;-82
2021/10/26 14:11:52;;;;;;;;;;;;;;;;;;5034364;28;19920;-82
2021/10/26 14:14:17;;;;;;;;;;;;;;;;;;5036444;28;20478;-82
2021/10/26 14:16:43;;;;;;;;;;;;;;;;;;5024287;28;19952;-83
2021/10/26 14:19:08;;;;;;;;;;;;;;;;;;5055209;28;20289;-82
2021/10/26 14:21:33;;;;;;;;;;;;;;;;;;5056760;28;20012;-82
2021/10/26 14:23:59;;;;;;;;;;;;;;;;;;5046676;28;20727;-82
2021/10/26 14:26:24;;;;;;;;;;;;;;;;;;5047793;28;19974;-82
2021/10/26 14:28:50;;;;;;;;;;;;;;;;;;5036985;28;19942;-82
2021/10/26 14:31:18;;;;;;;;;;;;;;;;;;5017055;28;20388;-83
2021/10/26 14:33:44;;;;;;;;;;;;;;;;;;5038665;28;19967;-83
2021/10/26 14:36:13;;;;;;;;;;;;;;;;;;5055064;28;20351;-82
2021/10/26 14:38:57;;;;;;;;;;;;;;;;;;5025076;28;19924;-83
2021/10/26 14:55:30;;;;;;;;;;;;;;;;;;5020371;28;19924;-83
2021/10/26 14:57:55;;;;;;;;;;;;;;;;;;5021157;28;19921;-84
2021/10/26 15:00:21;;;;;;;;;;;;;;;;;;5040631;28;20334;-83
2021/10/26 15:02:46;;;;;;;;;;;;;;;;;;5040197;28;19921;-82
2021/10/26 15:05:11;;;;;;;;;;;;;;;;;;5035542;28;19916;-83
2021/10/26 15:07:38;;;;;;;;;;;;;;;;;;5046539;28;19916;-82
2021/10/26 15:10:09;;;;;;;;;;;;;;;;;;5027964;28;20369;-84
2021/10/26 15:12:39;;;;;;;;;;;;;;;;;;5037101;28;19959;-83
2021/10/26 15:15:06;;;;;;;;;;;;;;;;;;5038400;28;20046;-83
2021/10/26 15:17:32;;;;;;;;;;;;;;;;;;5017729;28;19916;-82
2021/10/26 15:20:02;;;;;;;;;;;;;;;;;;5019657;28;19962;-82
2021/10/26 15:22:34;;;;;;;;;;;;;;;;;;5040229;28;19928;-82
2021/10/26 15:25:18;;;;;;;;;;;;;;;;;;5038291;28;20042;-83
2021/10/26 15:33:25;;;;;;;;;;;;;;;;;;5039231;28;19959;-82
2021/10/26 15:35:54;;;;;;;;;;;;;;;;;;5020196;28;19924;-83
2021/10/26 15:38:20;;;;;;;;;;;;;;;;;;5020916;28;20011;-83
2021/10/26 15:40:45;;;;;;;;;;;;;;;;;;5022422;28;20036;-82
2021/10/26 15:43:11;;;;;;;;;;;;;;;;;;5011960;28;19923;-82
2021/10/26 15:45:37;;;;;;;;;;;;;;;;;;5048653;28;19970;-81
2021/10/26 15:48:03;;;;;;;;;;;;;;;;;;5033091;28;19920;-83
2021/10/26 15:50:28;;;;;;;;;;;;;;;;;;5032156;28;19928;-82
2021/10/26 15:52:53;;;;;;;;;;;;;;;;;;5029003;28;20423;-82
2021/10/26 15:55:20;;;;;;;;;;;;;;;;;;5019530;28;19912;-82
2021/10/26 15:57:47;;;;;;;;;;;;;;;;;;5019447;28;19916;-82
2021/10/26 16:00:13;;;;;;;;;;;;;;;;;;5055509;28;19927;-82
2021/10/26 16:02:38;;;;;;;;;;;;;;;;;;5018916;28;19913;-83
2021/10/26 16:05:04;;;;;;;;;;;;;;;;;;5019491;28;19912;-82
2021/10/26 16:07:35;;;;;;;;;;;;;;;;;;5018393;28;19916;-82
2021/10/26 16:10:07;;;;;;;;;;;;;;;;;;5044110;28;20136;-82
2021/10/26 16:12:36;;;;;;;;;;;;;;;;;;5008196;28;19940;-82
2021/10/26 16:15:12;;;;;;;;;;;;;;;;;;5040278;28;19913;-82
2021/10/26 16:17:38;;;;;;;;;;;;;;;;;;5034574;28;19924;-82
2021/10/26 16:20:03;;;;;;;;;;;;;;;;;;5035303;28;19917;-83
2021/10/26 16:22:29;;;;;;;;;;;;;;;;;;5034839;28;19959;-83
2021/10/26 16:24:54;;;;;;;;;;;;;;;;;;5035159;28;19968;-83
2021/10/26 16:27:22;;;;;;;;;;;;;;;;;;5036377;28;20029;-83
2021/10/26 16:29:47;;;;;;;;;;;;;;;;;;5021999;28;19920;-83
2021/10/26 16:32:13;;;;;;;;;;;;;;;;;;5038685;28;20016;-82
2021/10/26 16:34:39;;;;;;;;;;;;;;;;;;5034769;28;19913;-82
2021/10/26 16:37:05;;;;;;;;;;;;;;;;;;5051469;28;19928;-82
2021/10/26 16:39:30;;;;;;;;;;;;;;;;;;5051504;28;19917;-82
2021/10/26 16:41:55;;;;;;;;;;;;;;;;;;5034855;28;19916;-82
2021/10/26 16:44:24;;;;;;;;;;;;;;;;;;5022500;28;20425;-82
2021/10/26 16:47:23;;;;;;;;;;;;;;;;;;5018231;28;19922;-82
2021/10/26 16:49:41;;;;;;;;;;;;;;;;;;5036220;28;20418;-82
2021/10/26 16:52:07;;;;;;;;;;;;;;;;;;5053835;28;19920;-83
2021/10/26 16:54:32;;;;;;;;;;;;;;;;;;5038543;28;20274;-83
2021/10/26 16:56:57;;;;;;;;;;;;;;;;;;5021267;28;19912;-83
2021/10/26 16:59:23;;;;;;;;;;;;;;;;;;5021570;28;20436;-83
2021/10/26 17:01:48;;;;;;;;;;;;;;;;;;5017656;28;20414;-83
2021/10/26 17:04:14;;;;;;;;;;;;;;;;;;5001649;28;19913;-83
2021/10/26 17:06:40;;;;;;;;;;;;;;;;;;5001644;28;20004;-83
2021/10/26 17:09:06;;;;;;;;;;;;;;;;;;5002604;28;20062;-83
2021/10/26 17:11:32;;;;;;;;;;;;;;;;;;5037742;28;19920;-84
2021/10/26 17:13:59;;;;;;;;;;;;;;;;;;5023445;28;19917;-82